Kenilworth, Louisiana
Current Conditions -  °F | °C
As of 1:55 PM on Thursday 29 Jan 2015 (Local Time) from KNBG Reporting Station
Broken Clouds Broken Clouds  
Wind Chill: 76°   Ceiling: 25000
Heat Index: 76°   Visibility: 10mi
Dew Point: 55°   Wind: 9mph
Humidity: 48%   Direction: 230°SW
Pressure: 30.2"   Gusts: NA
Location:  29.8369°N, 89.7702°W
Report Text: KNBG 291955Z 23008KT 210V280 10SM SCT037 BKN250 24/13 A3020 RMK AO2 SLP224 T02440128 $
Loading
Personal Weather Stations






























Interactive Weather Map New forecast layout! Learn more

10-Day Weather Forecast

Advertisements
Track Severe Weather on mobile